sensor_id;sensor_type;location;lat;lon;timestamp;temperature;humidity
1329;DHT22;658;48.820;9.354;2023-01-28T00:02:38;22.40;36.20
1329;DHT22;658;48.820;9.354;2023-01-28T00:06:39;22.40;36.30
1329;DHT22;658;48.820;9.354;2023-01-28T00:10:41;22.30;36.20
1329;DHT22;658;48.820;9.354;2023-01-28T00:14:42;22.30;36.20
1329;DHT22;658;48.820;9.354;2023-01-28T00:18:43;22.30;36.20
1329;DHT22;658;48.820;9.354;2023-01-28T00:22:47;22.30;36.20
1329;DHT22;658;48.820;9.354;2023-01-28T00:26:49;22.30;36.20
1329;DHT22;658;48.820;9.354;2023-01-28T00:30:49;22.20;36.20
1329;DHT22;658;48.820;9.354;2023-01-28T00:34:50;22.20;36.20
1329;DHT22;658;48.820;9.354;2023-01-28T00:38:56;22.20;36.10
1329;DHT22;658;48.820;9.354;2023-01-28T00:42:57;22.20;36.10
1329;DHT22;658;48.820;9.354;2023-01-28T00:46:57;22.20;36.10
1329;DHT22;658;48.820;9.354;2023-01-28T00:50:58;22.10;36.10
1329;DHT22;658;48.820;9.354;2023-01-28T00:54:59;22.10;36.10
1329;DHT22;658;48.820;9.354;2023-01-28T00:59:00;22.10;36.00
1329;DHT22;658;48.820;9.354;2023-01-28T01:03:00;22.10;36.00
1329;DHT22;658;48.820;9.354;2023-01-28T01:07:01;22.10;36.00
1329;DHT22;658;48.820;9.354;2023-01-28T01:11:02;22.10;36.00
1329;DHT22;658;48.820;9.354;2023-01-28T01:15:06;22.10;36.00
1329;DHT22;658;48.820;9.354;2023-01-28T01:19:10;22.10;36.60
1329;DHT22;658;48.820;9.354;2023-01-28T01:23:10;22.10;36.00
1329;DHT22;658;48.820;9.354;2023-01-28T01:27:12;22.00;35.90
1329;DHT22;658;48.820;9.354;2023-01-28T01:31:15;22.00;35.90
1329;DHT22;658;48.820;9.354;2023-01-28T01:35:17;22.00;35.90
1329;DHT22;658;48.820;9.354;2023-01-28T01:39:17;22.00;35.90
1329;DHT22;658;48.820;9.354;2023-01-28T01:43:20;22.00;35.90
1329;DHT22;658;48.820;9.354;2023-01-28T01:47:38;22.00;35.90
1329;DHT22;658;48.820;9.354;2023-01-28T01:51:41;22.00;35.90
1329;DHT22;658;48.820;9.354;2023-01-28T01:55:47;22.00;35.90
1329;DHT22;658;48.820;9.354;2023-01-28T01:59:47;22.00;35.90
1329;DHT22;658;48.820;9.354;2023-01-28T02:07:59;22.00;35.90
1329;DHT22;658;48.820;9.354;2023-01-28T02:12:23;21.90;35.80
1329;DHT22;658;48.820;9.354;2023-01-28T02:16:27;21.90;35.80
1329;DHT22;658;48.820;9.354;2023-01-28T02:29:26;21.90;35.70
1329;DHT22;658;48.820;9.354;2023-01-28T02:37:52;21.90;35.70
1329;DHT22;658;48.820;9.354;2023-01-28T02:46:12;21.90;35.70
1329;DHT22;658;48.820;9.354;2023-01-28T02:50:42;21.90;35.70
1329;DHT22;658;48.820;9.354;2023-01-28T02:55:00;21.90;36.10
1329;DHT22;658;48.820;9.354;2023-01-28T03:03:59;21.90;35.80
1329;DHT22;658;48.820;9.354;2023-01-28T03:08:03;21.90;35.80
1329;DHT22;658;48.820;9.354;2023-01-28T03:12:26;21.90;35.80
1329;DHT22;658;48.820;9.354;2023-01-28T03:16:47;21.90;35.80
1329;DHT22;658;48.820;9.354;2023-01-28T03:21:12;21.90;35.80
1329;DHT22;658;48.820;9.354;2023-01-28T03:25:33;21.90;35.80
1329;DHT22;658;48.820;9.354;2023-01-28T03:29:55;21.90;35.80
1329;DHT22;658;48.820;9.354;2023-01-28T03:34:18;21.90;35.70
1329;DHT22;658;48.820;9.354;2023-01-28T03:38:42;21.90;35.80
1329;DHT22;658;48.820;9.354;2023-01-28T03:42:48;21.90;35.80
1329;DHT22;658;48.820;9.354;2023-01-28T03:46:48;21.90;35.80
1329;DHT22;658;48.820;9.354;2023-01-28T03:50:49;21.90;35.80
1329;DHT22;658;48.820;9.354;2023-01-28T03:54:50;21.80;35.70
1329;DHT22;658;48.820;9.354;2023-01-28T03:58:52;21.90;35.80
1329;DHT22;658;48.820;9.354;2023-01-28T04:02:55;21.90;35.80
1329;DHT22;658;48.820;9.354;2023-01-28T04:06:56;21.80;35.70
1329;DHT22;658;48.820;9.354;2023-01-28T04:10:56;21.80;35.70
1329;DHT22;658;48.820;9.354;2023-01-28T04:14:57;21.90;35.80
1329;DHT22;658;48.820;9.354;2023-01-28T04:18:58;21.80;35.70
1329;DHT22;658;48.820;9.354;2023-01-28T04:22:58;21.80;35.70
1329;DHT22;658;48.820;9.354;2023-01-28T04:26:59;21.80;35.70
1329;DHT22;658;48.820;9.354;2023-01-28T04:30:59;21.80;35.70
1329;DHT22;658;48.820;9.354;2023-01-28T04:35:00;21.80;35.80
1329;DHT22;658;48.820;9.354;2023-01-28T04:39:01;21.80;35.80
1329;DHT22;658;48.820;9.354;2023-01-28T04:43:01;21.80;35.70
1329;DHT22;658;48.820;9.354;2023-01-28T04:47:02;21.80;35.80
1329;DHT22;658;48.820;9.354;2023-01-28T04:51:03;21.80;35.80
1329;DHT22;658;48.820;9.354;2023-01-28T04:55:04;21.80;35.80
1329;DHT22;658;48.820;9.354;2023-01-28T04:59:05;21.80;35.80
1329;DHT22;658;48.820;9.354;2023-01-28T05:03:05;21.80;35.70
1329;DHT22;658;48.820;9.354;2023-01-28T05:07:06;21.80;35.80
1329;DHT22;658;48.820;9.354;2023-01-28T05:11:07;21.80;35.70
1329;DHT22;658;48.820;9.354;2023-01-28T05:15:08;21.70;35.70
1329;DHT22;658;48.820;9.354;2023-01-28T05:19:08;21.70;35.70
1329;DHT22;658;48.820;9.354;2023-01-28T05:23:09;21.70;35.70
1329;DHT22;658;48.820;9.354;2023-01-28T05:27:10;21.70;35.70
1329;DHT22;658;48.820;9.354;2023-01-28T05:31:10;21.70;35.70
1329;DHT22;658;48.820;9.354;2023-01-28T05:35:11;21.70;35.70
1329;DHT22;658;48.820;9.354;2023-01-28T05:39:12;21.70;35.70
1329;DHT22;658;48.820;9.354;2023-01-28T05:43:12;21.70;35.70
1329;DHT22;658;48.820;9.354;2023-01-28T05:47:13;21.70;35.70
1329;DHT22;658;48.820;9.354;2023-01-28T05:51:13;21.70;35.70
1329;DHT22;658;48.820;9.354;2023-01-28T05:55:14;21.70;35.70
1329;DHT22;658;48.820;9.354;2023-01-28T05:59:15;21.70;35.70
1329;DHT22;658;48.820;9.354;2023-01-28T06:03:15;21.70;35.70
1329;DHT22;658;48.820;9.354;2023-01-28T06:07:16;21.70;35.70
1329;DHT22;658;48.820;9.354;2023-01-28T06:11:19;21.70;35.70
1329;DHT22;658;48.820;9.354;2023-01-28T06:15:20;21.70;35.70
1329;DHT22;658;48.820;9.354;2023-01-28T06:19:20;21.70;35.70
1329;DHT22;658;48.820;9.354;2023-01-28T06:23:21;21.70;35.80
1329;DHT22;658;48.820;9.354;2023-01-28T06:27:22;21.70;35.80
1329;DHT22;658;48.820;9.354;2023-01-28T06:31:22;21.70;35.80
1329;DHT22;658;48.820;9.354;2023-01-28T06:35:23;21.70;35.80
1329;DHT22;658;48.820;9.354;2023-01-28T06:39:24;21.70;35.80
1329;DHT22;658;48.820;9.354;2023-01-28T06:43:26;21.70;35.80
1329;DHT22;658;48.820;9.354;2023-01-28T06:47:27;21.70;35.90
1329;DHT22;658;48.820;9.354;2023-01-28T06:51:28;21.70;35.80
1329;DHT22;658;48.820;9.354;2023-01-28T06:55:28;21.70;35.80
1329;DHT22;658;48.820;9.354;2023-01-28T06:59:29;21.70;35.80
1329;DHT22;658;48.820;9.354;2023-01-28T07:03:29;21.70;35.80
1329;DHT22;658;48.820;9.354;2023-01-28T07:07:30;21.70;35.80
1329;DHT22;658;48.820;9.354;2023-01-28T07:11:31;21.70;35.80
1329;DHT22;658;48.820;9.354;2023-01-28T07:15:31;21.70;35.80
1329;DHT22;658;48.820;9.354;2023-01-28T07:19:32;21.70;35.80
1329;DHT22;658;48.820;9.354;2023-01-28T07:23:32;21.70;35.80
1329;DHT22;658;48.820;9.354;2023-01-28T07:27:33;21.70;35.70
1329;DHT22;658;48.820;9.354;2023-01-28T07:31:34;21.70;35.80
1329;DHT22;658;48.820;9.354;2023-01-28T07:35:34;21.70;35.80
1329;DHT22;658;48.820;9.354;2023-01-28T07:39:35;21.70;35.80
1329;DHT22;658;48.820;9.354;2023-01-28T07:43:36;21.70;35.80
1329;DHT22;658;48.820;9.354;2023-01-28T07:47:36;21.70;35.80
1329;DHT22;658;48.820;9.354;2023-01-28T07:51:37;21.70;35.80
1329;DHT22;658;48.820;9.354;2023-01-28T07:55:38;21.60;35.70
1329;DHT22;658;48.820;9.354;2023-01-28T07:59:39;21.60;36.20
1329;DHT22;658;48.820;9.354;2023-01-28T08:03:39;21.60;35.70
1329;DHT22;658;48.820;9.354;2023-01-28T08:07:40;21.70;35.70
1329;DHT22;658;48.820;9.354;2023-01-28T08:11:40;21.60;35.70
1329;DHT22;658;48.820;9.354;2023-01-28T08:15:41;21.60;35.70
1329;DHT22;658;48.820;9.354;2023-01-28T08:19:42;21.60;35.70
1329;DHT22;658;48.820;9.354;2023-01-28T08:23:43;21.60;35.70
1329;DHT22;658;48.820;9.354;2023-01-28T08:27:43;21.60;35.80
1329;DHT22;658;48.820;9.354;2023-01-28T08:31:44;21.60;35.70
1329;DHT22;658;48.820;9.354;2023-01-28T08:35:44;21.60;35.70
1329;DHT22;658;48.820;9.354;2023-01-28T08:39:45;21.60;35.60
1329;DHT22;658;48.820;9.354;2023-01-28T08:43:46;21.70;35.70
1329;DHT22;658;48.820;9.354;2023-01-28T08:47:51;21.70;35.70
1329;DHT22;658;48.820;9.354;2023-01-28T08:51:52;21.80;35.70
1329;DHT22;658;48.820;9.354;2023-01-28T08:55:53;21.80;35.60
1329;DHT22;658;48.820;9.354;2023-01-28T08:59:53;21.90;35.70
1329;DHT22;658;48.820;9.354;2023-01-28T09:03:54;21.90;35.60
1329;DHT22;658;48.820;9.354;2023-01-28T09:07:55;22.00;35.70
1329;DHT22;658;48.820;9.354;2023-01-28T09:11:56;22.00;35.60
1329;DHT22;658;48.820;9.354;2023-01-28T09:15:56;22.10;35.60
1329;DHT22;658;48.820;9.354;2023-01-28T09:19:57;22.10;35.60
1329;DHT22;658;48.820;9.354;2023-01-28T09:23:57;22.10;35.50
1329;DHT22;658;48.820;9.354;2023-01-28T09:27:58;22.20;35.60
1329;DHT22;658;48.820;9.354;2023-01-28T09:31:59;22.20;35.60
1329;DHT22;658;48.820;9.354;2023-01-28T09:36:04;22.20;35.60
1329;DHT22;658;48.820;9.354;2023-01-28T09:40:06;22.20;35.70
1329;DHT22;658;48.820;9.354;2023-01-28T09:44:31;22.20;35.70
1329;DHT22;658;48.820;9.354;2023-01-28T09:48:56;22.10;35.70
1329;DHT22;658;48.820;9.354;2023-01-28T09:53:14;22.00;35.60
1329;DHT22;658;48.820;9.354;2023-01-28T09:57:22;21.90;35.40
1329;DHT22;658;48.820;9.354;2023-01-28T10:01:43;21.80;35.20
1329;DHT22;658;48.820;9.354;2023-01-28T10:06:41;21.90;35.00
1329;DHT22;658;48.820;9.354;2023-01-28T10:10:49;21.90;34.70
1329;DHT22;658;48.820;9.354;2023-01-28T10:15:29;21.90;35.00
1329;DHT22;658;48.820;9.354;2023-01-28T10:19:58;22.00;34.90
1329;DHT22;658;48.820;9.354;2023-01-28T10:24:10;22.10;34.80
1329;DHT22;658;48.820;9.354;2023-01-28T10:28:20;22.30;34.70
1329;DHT22;658;48.820;9.354;2023-01-28T10:32:32;22.40;34.60
1329;DHT22;658;48.820;9.354;2023-01-28T10:36:36;22.50;34.60
1329;DHT22;658;48.820;9.354;2023-01-28T10:40:37;22.50;34.50
1329;DHT22;658;48.820;9.354;2023-01-28T10:44:41;22.60;34.80
1329;DHT22;658;48.820;9.354;2023-01-28T10:53:13;22.60;34.50
1329;DHT22;658;48.820;9.354;2023-01-28T10:57:16;22.70;34.60
1329;DHT22;658;48.820;9.354;2023-01-28T11:01:17;22.70;34.50
1329;DHT22;658;48.820;9.354;2023-01-28T11:05:24;22.80;34.50
1329;DHT22;658;48.820;9.354;2023-01-28T11:09:30;22.80;34.50
1329;DHT22;658;48.820;9.354;2023-01-28T11:13:32;22.90;34.60
1329;DHT22;658;48.820;9.354;2023-01-28T11:17:34;22.90;34.80
1329;DHT22;658;48.820;9.354;2023-01-28T11:21:37;23.00;34.60
1329;DHT22;658;48.820;9.354;2023-01-28T11:25:38;23.00;35.10
1329;DHT22;658;48.820;9.354;2023-01-28T11:29:39;23.10;34.60
1329;DHT22;658;48.820;9.354;2023-01-28T11:37:51;23.00;34.50
1329;DHT22;658;48.820;9.354;2023-01-28T11:41:51;23.00;34.40
1329;DHT22;658;48.820;9.354;2023-01-28T12:07:31;23.00;34.80
1329;DHT22;658;48.820;9.354;2023-01-28T12:11:55;23.00;34.80
1329;DHT22;658;48.820;9.354;2023-01-28T12:16:17;23.00;34.90
1329;DHT22;658;48.820;9.354;2023-01-28T12:29:07;23.00;35.20
1329;DHT22;658;48.820;9.354;2023-01-28T12:42:12;23.00;35.40
1329;DHT22;658;48.820;9.354;2023-01-28T12:50:28;23.00;35.70
1329;DHT22;658;48.820;9.354;2023-01-28T12:59:17;23.10;35.70
1329;DHT22;658;48.820;9.354;2023-01-28T13:03:56;23.10;35.80
1329;DHT22;658;48.820;9.354;2023-01-28T13:08:09;23.10;35.80
1329;DHT22;658;48.820;9.354;2023-01-28T13:12:11;23.10;35.80
1329;DHT22;658;48.820;9.354;2023-01-28T13:16:13;23.10;35.80
1329;DHT22;658;48.820;9.354;2023-01-28T13:20:15;23.10;35.80
1329;DHT22;658;48.820;9.354;2023-01-28T13:24:20;23.10;35.80
1329;DHT22;658;48.820;9.354;2023-01-28T13:28:27;23.10;35.80
1329;DHT22;658;48.820;9.354;2023-01-28T13:32:37;23.10;35.80
1329;DHT22;658;48.820;9.354;2023-01-28T13:36:41;23.10;35.70
1329;DHT22;658;48.820;9.354;2023-01-28T13:40:51;23.10;35.60
1329;DHT22;658;48.820;9.354;2023-01-28T13:44:53;23.10;35.50
1329;DHT22;658;48.820;9.354;2023-01-28T13:48:56;23.20;35.40
1329;DHT22;658;48.820;9.354;2023-01-28T13:53:21;23.20;35.30
1329;DHT22;658;48.820;9.354;2023-01-28T14:14:33;23.30;35.00
1329;DHT22;658;48.820;9.354;2023-01-28T14:18:41;23.40;34.90
1329;DHT22;658;48.820;9.354;2023-01-28T14:22:42;23.40;35.50
1329;DHT22;658;48.820;9.354;2023-01-28T14:27:06;23.40;35.00
1329;DHT22;658;48.820;9.354;2023-01-28T14:31:23;23.50;35.10
1329;DHT22;658;48.820;9.354;2023-01-28T14:35:31;23.50;35.10
1329;DHT22;658;48.820;9.354;2023-01-28T14:39:42;23.50;35.20
1329;DHT22;658;48.820;9.354;2023-01-28T14:43:44;23.50;35.30
1329;DHT22;658;48.820;9.354;2023-01-28T15:01:25;23.40;35.40
1329;DHT22;658;48.820;9.354;2023-01-28T15:05:27;23.40;35.50
1329;DHT22;658;48.820;9.354;2023-01-28T15:09:28;23.40;35.40
1329;DHT22;658;48.820;9.354;2023-01-28T15:13:33;23.40;35.80
1329;DHT22;658;48.820;9.354;2023-01-28T15:17:35;23.40;35.50
1329;DHT22;658;48.820;9.354;2023-01-28T15:21:36;23.40;35.50
1329;DHT22;658;48.820;9.354;2023-01-28T15:25:37;23.40;35.40
1329;DHT22;658;48.820;9.354;2023-01-28T15:29:38;23.50;35.60
1329;DHT22;658;48.820;9.354;2023-01-28T15:33:39;23.40;35.50
1329;DHT22;658;48.820;9.354;2023-01-28T15:37:39;23.50;35.70
1329;DHT22;658;48.820;9.354;2023-01-28T15:41:43;23.40;35.50
1329;DHT22;658;48.820;9.354;2023-01-28T15:45:46;23.40;35.70
1329;DHT22;658;48.820;9.354;2023-01-28T15:49:52;23.40;35.60
1329;DHT22;658;48.820;9.354;2023-01-28T15:53:58;23.40;35.70
1329;DHT22;658;48.820;9.354;2023-01-28T15:58:29;23.40;35.60
1329;DHT22;658;48.820;9.354;2023-01-28T16:02:30;23.40;35.60
1329;DHT22;658;48.820;9.354;2023-01-28T16:06:39;23.30;35.70
1329;DHT22;658;48.820;9.354;2023-01-28T16:10:53;23.20;35.60
1329;DHT22;658;48.820;9.354;2023-01-28T16:14:59;23.20;35.50
1329;DHT22;658;48.820;9.354;2023-01-28T16:19:03;23.20;35.60
1329;DHT22;658;48.820;9.354;2023-01-28T16:23:19;23.20;35.50
1329;DHT22;658;48.820;9.354;2023-01-28T16:27:26;23.20;35.40
1329;DHT22;658;48.820;9.354;2023-01-28T16:31:27;23.20;35.50
1329;DHT22;658;48.820;9.354;2023-01-28T16:35:29;23.10;35.40
1329;DHT22;658;48.820;9.354;2023-01-28T16:39:29;23.10;35.60
1329;DHT22;658;48.820;9.354;2023-01-28T16:43:30;23.20;35.50
1329;DHT22;658;48.820;9.354;2023-01-28T16:47:31;23.20;35.40
1329;DHT22;658;48.820;9.354;2023-01-28T16:51:32;23.20;35.40
1329;DHT22;658;48.820;9.354;2023-01-28T16:55:33;23.20;35.40
1329;DHT22;658;48.820;9.354;2023-01-28T16:59:33;23.20;35.50
1329;DHT22;658;48.820;9.354;2023-01-28T17:03:34;23.20;35.50
1329;DHT22;658;48.820;9.354;2023-01-28T17:07:34;23.20;35.50
1329;DHT22;658;48.820;9.354;2023-01-28T17:11:35;23.20;35.50
1329;DHT22;658;48.820;9.354;2023-01-28T17:15:36;23.20;35.50
1329;DHT22;658;48.820;9.354;2023-01-28T17:19:36;23.10;35.50
1329;DHT22;658;48.820;9.354;2023-01-28T17:23:38;23.20;35.50
1329;DHT22;658;48.820;9.354;2023-01-28T17:27:38;23.10;35.40
1329;DHT22;658;48.820;9.354;2023-01-28T17:31:39;23.10;35.30
1329;DHT22;658;48.820;9.354;2023-01-28T17:35:45;23.20;35.30
1329;DHT22;658;48.820;9.354;2023-01-28T17:39:46;23.10;35.20
1329;DHT22;658;48.820;9.354;2023-01-28T17:43:51;23.10;35.20
1329;DHT22;658;48.820;9.354;2023-01-28T17:47:51;23.10;35.20
1329;DHT22;658;48.820;9.354;2023-01-28T17:51:53;23.10;35.20
1329;DHT22;658;48.820;9.354;2023-01-28T17:55:53;23.00;35.20
1329;DHT22;658;48.820;9.354;2023-01-28T17:59:54;23.00;35.30
1329;DHT22;658;48.820;9.354;2023-01-28T18:03:56;23.00;35.40
1329;DHT22;658;48.820;9.354;2023-01-28T18:07:56;23.00;35.40
1329;DHT22;658;48.820;9.354;2023-01-28T18:11:57;23.00;35.40
1329;DHT22;658;48.820;9.354;2023-01-28T18:15:58;23.00;35.50
1329;DHT22;658;48.820;9.354;2023-01-28T18:19:58;22.90;35.40
1329;DHT22;658;48.820;9.354;2023-01-28T18:23:59;22.90;35.50
1329;DHT22;658;48.820;9.354;2023-01-28T18:28:00;22.90;35.60
1329;DHT22;658;48.820;9.354;2023-01-28T18:32:00;22.90;35.60
1329;DHT22;658;48.820;9.354;2023-01-28T18:36:04;22.90;35.70
1329;DHT22;658;48.820;9.354;2023-01-28T18:40:05;22.90;35.60
1329;DHT22;658;48.820;9.354;2023-01-28T18:44:11;22.90;35.60
1329;DHT22;658;48.820;9.354;2023-01-28T18:48:12;22.90;35.70
1329;DHT22;658;48.820;9.354;2023-01-28T18:52:12;22.90;35.80
1329;DHT22;658;48.820;9.354;2023-01-28T18:56:13;22.90;35.90
1329;DHT22;658;48.820;9.354;2023-01-28T19:00:14;22.80;35.90
1329;DHT22;658;48.820;9.354;2023-01-28T19:04:15;22.80;36.10
1329;DHT22;658;48.820;9.354;2023-01-28T19:08:16;22.80;36.20
1329;DHT22;658;48.820;9.354;2023-01-28T19:12:17;22.70;37.80
1329;DHT22;658;48.820;9.354;2023-01-28T19:16:18;22.70;39.00
1329;DHT22;658;48.820;9.354;2023-01-28T19:20:19;22.60;39.60
1329;DHT22;658;48.820;9.354;2023-01-28T19:24:19;22.60;41.00
1329;DHT22;658;48.820;9.354;2023-01-28T19:28:20;22.50;42.30
1329;DHT22;658;48.820;9.354;2023-01-28T19:32:21;22.50;42.20
1329;DHT22;658;48.820;9.354;2023-01-28T19:36:23;22.50;42.40
1329;DHT22;658;48.820;9.354;2023-01-28T19:40:25;22.50;42.70
1329;DHT22;658;48.820;9.354;2023-01-28T19:44:25;22.50;44.00
1329;DHT22;658;48.820;9.354;2023-01-28T19:48:26;22.50;43.60
1329;DHT22;658;48.820;9.354;2023-01-28T19:52:27;22.50;44.10
1329;DHT22;658;48.820;9.354;2023-01-28T19:56:27;22.50;44.70
1329;DHT22;658;48.820;9.354;2023-01-28T20:00:29;22.50;45.00
1329;DHT22;658;48.820;9.354;2023-01-28T20:04:29;22.50;44.60
1329;DHT22;658;48.820;9.354;2023-01-28T20:08:30;22.50;45.00
1329;DHT22;658;48.820;9.354;2023-01-28T20:12:31;22.50;45.20
1329;DHT22;658;48.820;9.354;2023-01-28T20:16:33;22.50;45.50
1329;DHT22;658;48.820;9.354;2023-01-28T20:20:34;22.50;45.80
1329;DHT22;658;48.820;9.354;2023-01-28T20:24:35;22.60;46.00
1329;DHT22;658;48.820;9.354;2023-01-28T20:28:36;22.60;46.50
1329;DHT22;658;48.820;9.354;2023-01-28T20:32:36;22.60;46.20
1329;DHT22;658;48.820;9.354;2023-01-28T20:36:37;22.60;46.60
1329;DHT22;658;48.820;9.354;2023-01-28T20:40:38;22.60;46.40
1329;DHT22;658;48.820;9.354;2023-01-28T20:44:47;22.60;46.50
1329;DHT22;658;48.820;9.354;2023-01-28T20:48:48;22.60;46.50
1329;DHT22;658;48.820;9.354;2023-01-28T20:52:49;22.60;46.70
1329;DHT22;658;48.820;9.354;2023-01-28T20:56:51;22.70;47.10
1329;DHT22;658;48.820;9.354;2023-01-28T21:00:52;22.70;46.50
1329;DHT22;658;48.820;9.354;2023-01-28T21:04:52;22.70;47.00
1329;DHT22;658;48.820;9.354;2023-01-28T21:08:53;22.70;46.80
1329;DHT22;658;48.820;9.354;2023-01-28T21:12:54;22.70;46.70
1329;DHT22;658;48.820;9.354;2023-01-28T21:16:55;22.70;46.70
1329;DHT22;658;48.820;9.354;2023-01-28T21:21:02;22.70;46.90
1329;DHT22;658;48.820;9.354;2023-01-28T21:25:03;22.70;46.80
1329;DHT22;658;48.820;9.354;2023-01-28T21:29:04;22.70;46.90
1329;DHT22;658;48.820;9.354;2023-01-28T21:33:05;22.70;46.80
1329;DHT22;658;48.820;9.354;2023-01-28T21:37:06;22.70;46.30
1329;DHT22;658;48.820;9.354;2023-01-28T21:41:07;22.70;46.30
1329;DHT22;658;48.820;9.354;2023-01-28T21:45:08;22.60;45.80
1329;DHT22;658;48.820;9.354;2023-01-28T21:49:09;22.60;45.90
1329;DHT22;658;48.820;9.354;2023-01-28T21:53:10;22.50;45.70
1329;DHT22;658;48.820;9.354;2023-01-28T21:57:10;22.40;45.40
1329;DHT22;658;48.820;9.354;2023-01-28T22:01:11;22.40;45.00
1329;DHT22;658;48.820;9.354;2023-01-28T22:05:12;22.40;45.10
1329;DHT22;658;48.820;9.354;2023-01-28T22:09:12;22.30;45.00
1329;DHT22;658;48.820;9.354;2023-01-28T22:13:13;22.30;44.80
1329;DHT22;658;48.820;9.354;2023-01-28T22:17:15;22.30;44.70
1329;DHT22;658;48.820;9.354;2023-01-28T22:21:18;22.20;44.30
1329;DHT22;658;48.820;9.354;2023-01-28T22:25:19;22.20;44.30
1329;DHT22;658;48.820;9.354;2023-01-28T22:29:21;22.20;44.00
1329;DHT22;658;48.820;9.354;2023-01-28T22:33:21;22.10;44.10
1329;DHT22;658;48.820;9.354;2023-01-28T22:37:23;22.10;44.20
1329;DHT22;658;48.820;9.354;2023-01-28T22:41:24;22.10;43.90
1329;DHT22;658;48.820;9.354;2023-01-28T22:45:25;22.10;44.00
1329;DHT22;658;48.820;9.354;2023-01-28T22:49:26;22.00;43.90
1329;DHT22;658;48.820;9.354;2023-01-28T22:53:26;22.00;43.70
1329;DHT22;658;48.820;9.354;2023-01-28T22:57:27;22.00;43.70
1329;DHT22;658;48.820;9.354;2023-01-28T23:01:28;22.00;43.70
1329;DHT22;658;48.820;9.354;2023-01-28T23:05:29;21.90;43.60
1329;DHT22;658;48.820;9.354;2023-01-28T23:09:29;21.90;43.50
1329;DHT22;658;48.820;9.354;2023-01-28T23:13:30;21.90;43.50
1329;DHT22;658;48.820;9.354;2023-01-28T23:17:49;21.90;43.90
1329;DHT22;658;48.820;9.354;2023-01-28T23:22:13;21.90;43.30
1329;DHT22;658;48.820;9.354;2023-01-28T23:26:56;21.80;43.20
1329;DHT22;658;48.820;9.354;2023-01-28T23:30:56;21.80;43.10
1329;DHT22;658;48.820;9.354;2023-01-28T23:34:57;21.80;42.90
1329;DHT22;658;48.820;9.354;2023-01-28T23:38:58;21.80;42.90
1329;DHT22;658;48.820;9.354;2023-01-28T23:42:58;21.80;42.80
1329;DHT22;658;48.820;9.354;2023-01-28T23:46:59;21.70;42.60
1329;DHT22;658;48.820;9.354;2023-01-28T23:51:00;21.70;42.50
1329;DHT22;658;48.820;9.354;2023-01-28T23:55:01;21.70;42.50
1329;DHT22;658;48.820;9.354;2023-01-28T23:59:02;21.70;42.30
